Terminal Aerodrome Forecast
Issued by NWS

Home | Current Version | Previous Version | Text Only | Print | Product List | Glossary On
Versions: 1 2 3 4 5 6 7 8 9 10 11 12 13 14
611
FTUS42 KMLB 290533
TAFSFB
TAF
KSFB 290533Z 2906/3006 28007KT P6SM SKC
     FM290900 29004KT P6SM MIFG SCT006
     FM291400 29007KT P6SM SCT025
     FM291800 28005KT P6SM SCT050
     FM292100 11009KT P6SM SCT060
     FM300200 18005KT P6SM FEW060 SCT250=

USA.gov is the U.S. government's official web portal to all federal, state and local government web resources and services.